Bear Valley Springs, California
Current Conditions -  °F | °C
As of 8:55 AM on Thursday 23 Oct 2014 (Local Time) from KTSP Reporting Station
Clear Clear  
Wind Chill: 57°   Ceiling: Unl
Heat Index: 57°   Visibility: 10mi
Dew Point: 32°   Wind: 5mph
Humidity: 38%   Direction: 110°ESE
Pressure: 30.16"   Gusts: NA
Location:  35.1338°N, 118.552°W
Report Text: KTSP 231555Z AUTO 11004KT 10SM CLR 14/00 A3016 RMK AO2
Loading
Personal Weather Stations






























Interactive Weather Map
Tropical Storm Tracking
New forecast layout! Learn more

10-Day Weather Forecast

Advertisements
Track Severe Weather on mobile